Time;durP1;ratioP1;P1;durP2;ratioP2;P2;SDS_P1;SDS_P2;PMS_P1;PMS_P2;Temp;Humidity;BMP_temperature;BMP_pressure;BME280_temperature;BME280_humidity;BME280_pressure;Samples;Min_cycle;Max_cycle;Signal;HPM_P1;HPM_P2
2023/12/31 00:53:02;;;;;;;1.02;0.82;;;22.40;36.90;;;;;;5531547;23;20049;-62
2023/12/31 00:55:29;;;;;;;1.38;0.80;;;22.40;37.00;;;;;;5043823;28;20057;-61
2023/12/31 00:57:56;;;;;;;1.48;0.90;;;22.40;37.10;;;;;;5041746;28;20045;-63
2023/12/31 01:00:24;;;;;;;1.40;0.65;;;22.50;37.20;;;;;;5041678;28;20056;-62
2023/12/31 01:02:51;;;;;;;1.42;0.82;;;22.50;37.20;;;;;;5043993;28;20058;-60
2023/12/31 01:05:18;;;;;;;1.30;0.80;;;22.50;37.20;;;;;;5038850;28;20053;-63
2023/12/31 01:07:45;;;;;;;1.60;0.82;;;22.60;37.20;;;;;;5042274;28;20060;-63
2023/12/31 01:10:15;;;;;;;1.27;0.80;;;22.60;37.20;;;;;;5037693;28;20059;-63
2023/12/31 01:12:42;;;;;;;0.88;0.70;;;22.60;37.10;;;;;;5038816;28;20053;-62
2023/12/31 01:15:10;;;;;;;0.80;0.55;;;22.70;37.10;;;;;;5042948;28;20064;-63
2023/12/31 01:17:37;;;;;;;0.93;0.73;;;22.80;37.10;;;;;;5036429;28;20049;-60
2023/12/31 01:20:05;;;;;;;0.95;0.75;;;22.80;37.00;;;;;;5040498;28;20053;-59
2023/12/31 01:22:33;;;;;;;0.47;0.40;;;22.90;37.00;;;;;;5040497;28;21995;-60
2023/12/31 01:25:00;;;;;;;0.90;0.60;;;22.90;37.00;;;;;;5039131;28;20060;-60
2023/12/31 01:27:29;;;;;;;1.23;0.80;;;22.90;36.90;;;;;;5041091;28;20054;-60
2023/12/31 01:29:56;;;;;;;0.82;0.80;;;22.90;36.90;;;;;;5039147;28;20064;-59
2023/12/31 01:32:23;;;;;;;0.90;0.63;;;22.90;36.90;;;;;;5037636;28;20045;-61
2023/12/31 01:34:50;;;;;;;0.88;0.63;;;23.00;36.90;;;;;;5035929;28;20044;-57
2023/12/31 01:37:17;;;;;;;2.10;0.68;;;23.00;36.80;;;;;;5037072;28;20060;-60
2023/12/31 01:39:44;;;;;;;0.70;0.70;;;23.00;36.80;;;;;;5037612;28;20052;-61
2023/12/31 01:42:12;;;;;;;0.60;0.60;;;23.00;36.80;;;;;;5039060;28;20053;-61
2023/12/31 01:44:41;;;;;;;1.35;0.80;;;22.90;36.80;;;;;;5043124;28;20053;-61
2023/12/31 01:47:09;;;;;;;1.08;0.80;;;23.00;36.80;;;;;;5037159;28;20056;-61
2023/12/31 01:49:36;;;;;;;1.02;0.88;;;22.90;36.70;;;;;;5036768;28;20432;-61
2023/12/31 01:52:04;;;;;;;1.02;0.73;;;22.90;36.70;;;;;;5035949;28;20057;-59
2023/12/31 01:54:32;;;;;;;1.25;0.70;;;22.90;36.70;;;;;;5036027;28;20481;-59
2023/12/31 01:56:59;;;;;;;0.77;0.75;;;22.90;36.70;;;;;;5044186;28;20049;-59
2023/12/31 01:59:27;;;;;;;1.48;0.90;;;22.90;36.70;;;;;;5038912;28;20045;-60
2023/12/31 02:01:56;;;;;;;0.95;0.80;;;22.90;36.70;;;;;;5041111;28;20052;-60
2023/12/31 02:04:23;;;;;;;1.10;0.65;;;22.90;36.70;;;;;;5036362;28;20072;-59
2023/12/31 02:06:51;;;;;;;2.15;0.88;;;22.90;36.70;;;;;;5039339;28;20059;-57
2023/12/31 02:09:18;;;;;;;1.00;0.70;;;22.80;36.70;;;;;;5042687;28;20128;-59
2023/12/31 02:11:45;;;;;;;1.73;0.80;;;22.80;36.70;;;;;;5036619;28;20516;-59
2023/12/31 02:14:12;;;;;;;0.98;0.80;;;22.80;36.70;;;;;;5042586;28;20061;-59
2023/12/31 02:16:39;;;;;;;1.50;0.90;;;22.70;37.10;;;;;;5040156;28;20064;-59
2023/12/31 02:19:08;;;;;;;1.88;0.90;;;22.80;36.70;;;;;;5039122;28;20052;-59
2023/12/31 02:21:35;;;;;;;1.15;1.00;;;22.70;36.60;;;;;;5044068;28;20057;-60
2023/12/31 02:24:02;;;;;;;1.95;0.80;;;22.70;36.60;;;;;;5041614;28;20397;-58
2023/12/31 02:26:33;;;;;;;1.52;1.00;;;22.70;36.70;;;;;;5035252;28;20053;-60
2023/12/31 02:29:00;;;;;;;1.60;0.70;;;22.60;36.60;;;;;;5037627;28;20052;-59
2023/12/31 02:31:28;;;;;;;1.55;1.00;;;22.60;36.70;;;;;;5042018;28;20045;-59
2023/12/31 02:33:55;;;;;;;1.55;0.98;;;22.60;36.70;;;;;;5038601;28;20060;-60
2023/12/31 02:36:22;;;;;;;1.00;0.80;;;22.60;36.70;;;;;;5040003;28;20410;-60
2023/12/31 02:38:49;;;;;;;1.55;0.90;;;22.60;36.80;;;;;;5039680;28;20075;-60
2023/12/31 02:41:16;;;;;;;1.55;1.00;;;22.60;36.80;;;;;;5039276;28;20044;-57
2023/12/31 02:43:45;;;;;;;7.00;1.17;;;22.60;36.90;;;;;;5038450;28;20060;-58
2023/12/31 02:49:35;;;;;;;1.00;0.80;;;22.70;37.00;;;;;;5035239;28;20033;-59
2023/12/31 02:52:02;;;;;;;2.28;1.23;;;22.80;37.00;;;;;;5040041;28;20053;-58
2023/12/31 02:54:29;;;;;;;2.42;1.00;;;22.80;36.90;;;;;;5041146;28;20060;-60
2023/12/31 02:56:56;;;;;;;1.05;0.80;;;22.80;36.90;;;;;;5035172;28;20394;-59
2023/12/31 02:59:25;;;;;;;1.27;0.93;;;22.80;36.90;;;;;;5039375;28;20076;-58
2023/12/31 03:01:53;;;;;;;2.05;1.00;;;22.80;36.80;;;;;;5039224;28;20057;-57
2023/12/31 03:04:20;;;;;;;1.30;0.80;;;22.90;36.80;;;;;;5034669;28;20045;-59
2023/12/31 03:06:51;;;;;;;1.48;0.90;;;22.90;36.80;;;;;;5040513;28;20061;-57
2023/12/31 03:09:18;;;;;;;0.95;0.70;;;22.90;36.80;;;;;;5041156;28;20057;-58
2023/12/31 03:11:46;;;;;;;1.80;0.98;;;22.90;36.70;;;;;;5036929;28;20057;-58
2023/12/31 03:14:14;;;;;;;3.15;1.30;;;22.90;36.70;;;;;;5038245;28;20058;-57
2023/12/31 03:16:46;;;;;;;0.60;0.55;;;22.90;36.70;;;;;;5034305;28;20045;-59
2023/12/31 03:19:14;;;;;;;1.30;0.95;;;22.90;36.70;;;;;;5039196;28;20056;-57
2023/12/31 03:21:41;;;;;;;0.88;0.77;;;22.90;36.60;;;;;;5046587;28;20053;-56
2023/12/31 03:24:09;;;;;;;0.93;0.82;;;22.90;36.60;;;;;;5045678;28;20065;-58
2023/12/31 03:26:36;;;;;;;1.67;1.13;;;22.90;36.60;;;;;;5042259;28;20053;-57
2023/12/31 03:29:04;;;;;;;1.25;0.98;;;22.90;36.60;;;;;;5046063;28;20052;-57
2023/12/31 03:31:31;;;;;;;1.33;0.93;;;22.90;36.60;;;;;;5041644;28;20057;-58
2023/12/31 03:33:59;;;;;;;0.82;0.80;;;22.90;36.60;;;;;;5041930;28;20057;-59
2023/12/31 03:36:26;;;;;;;2.35;0.88;;;22.90;36.60;;;;;;5044435;28;20053;-57
2023/12/31 03:38:54;;;;;;;2.97;1.00;;;22.90;36.60;;;;;;5043813;28;20053;-57
2023/12/31 03:41:21;;;;;;;1.13;0.70;;;22.80;36.60;;;;;;5043492;28;20401;-58
2023/12/31 03:43:48;;;;;;;1.70;0.77;;;22.80;36.60;;;;;;5045010;28;20422;-59
2023/12/31 03:46:16;;;;;;;1.77;1.10;;;22.80;36.60;;;;;;5041951;28;20057;-57
2023/12/31 03:48:43;;;;;;;2.50;1.08;;;22.80;36.40;;;;;;5043350;28;20083;-58
2023/12/31 03:51:12;;;;;;;9.15;1.48;;;22.80;36.20;;;;;;5041384;28;20409;-56
2023/12/31 03:53:40;;;;;;;6.63;1.58;;;22.70;36.50;;;;;;5045949;28;20057;-56
2023/12/31 03:56:09;;;;;;;2.88;1.15;;;22.70;35.90;;;;;;5044217;28;20076;-57
2023/12/31 03:58:36;;;;;;;1.73;1.13;;;22.70;35.80;;;;;;5041124;28;20064;-57
2023/12/31 04:01:03;;;;;;;1.85;1.20;;;22.60;35.60;;;;;;5056571;28;20051;-57
2023/12/31 04:03:31;;;;;;;1.95;1.50;;;22.60;35.50;;;;;;5022678;28;20054;-56
2023/12/31 04:05:58;;;;;;;9.20;1.02;;;22.60;35.30;;;;;;4971288;28;20539;-57
2023/12/31 04:08:26;;;;;;;2.55;0.95;;;22.50;35.30;;;;;;4970457;28;20061;-57
2023/12/31 04:10:53;;;;;;;1.80;1.02;;;22.50;35.40;;;;;;4969490;28;20051;-57
2023/12/31 04:13:22;;;;;;;4.43;1.30;;;22.50;35.60;;;;;;4965735;28;20050;-59
2023/12/31 04:15:49;;;;;;;2.40;1.00;;;22.50;35.70;;;;;;4968634;28;20070;-59
2023/12/31 04:18:16;;;;;;;1.65;0.90;;;22.50;36.00;;;;;;4971983;28;20432;-60
2023/12/31 04:20:43;;;;;;;2.40;1.02;;;22.50;36.10;;;;;;4968785;28;20050;-60
2023/12/31 04:23:11;;;;;;;1.38;1.05;;;22.50;36.30;;;;;;4970179;28;20066;-60
2023/12/31 04:25:39;;;;;;;1.63;0.90;;;22.60;36.30;;;;;;4968119;28;20054;-61
2023/12/31 04:34:51;;;;;;;1.95;0.90;;;22.80;36.30;;;;;;4971737;28;20038;-59
2023/12/31 04:37:19;;;;;;;2.78;1.02;;;22.80;36.30;;;;;;4969864;28;20051;-60
2023/12/31 04:39:46;;;;;;;1.13;0.90;;;22.80;36.30;;;;;;4963992;28;20061;-61
2023/12/31 04:42:15;;;;;;;1.13;0.73;;;22.80;36.40;;;;;;4966742;28;20054;-60
2023/12/31 04:44:42;;;;;;;1.50;0.70;;;22.80;36.40;;;;;;4968377;28;20525;-60
2023/12/31 04:47:09;;;;;;;2.08;1.10;;;22.80;36.40;;;;;;4967343;28;20054;-61
2023/12/31 04:49:36;;;;;;;1.23;0.70;;;22.80;36.30;;;;;;4966594;28;20488;-60
2023/12/31 04:52:04;;;;;;;1.92;1.00;;;22.80;36.40;;;;;;4964994;28;20051;-60
2023/12/31 04:54:31;;;;;;;0.95;0.60;;;22.80;36.30;;;;;;4968624;28;20047;-59
2023/12/31 04:56:58;;;;;;;1.00;0.82;;;22.80;36.30;;;;;;4967375;28;20520;-60
2023/12/31 04:59:27;;;;;;;1.30;0.80;;;22.80;36.30;;;;;;4968047;28;20066;-60
2023/12/31 05:01:55;;;;;;;1.30;0.80;;;22.80;36.30;;;;;;4967731;28;20380;-60
2023/12/31 05:04:22;;;;;;;1.08;0.80;;;22.80;36.30;;;;;;4962946;28;20081;-60
2023/12/31 05:06:49;;;;;;;2.70;0.90;;;22.80;36.30;;;;;;4967708;28;20423;-61
2023/12/31 05:09:16;;;;;;;1.45;0.98;;;22.80;36.30;;;;;;4968038;28;20055;-60
2023/12/31 05:11:43;;;;;;;1.20;1.00;;;22.80;36.20;;;;;;4967920;28;20522;-60
2023/12/31 05:14:10;;;;;;;1.17;0.90;;;22.70;36.20;;;;;;4967354;28;20050;-61
2023/12/31 05:16:39;;;;;;;1.40;0.80;;;22.70;36.20;;;;;;4966142;28;20074;-60
2023/12/31 05:19:06;;;;;;;1.38;0.70;;;22.80;36.30;;;;;;4966165;28;20057;-61
2023/12/31 05:21:33;;;;;;;1.35;0.90;;;22.80;36.30;;;;;;4968618;28;20054;-59
2023/12/31 05:24:01;;;;;;;1.10;0.90;;;22.70;36.30;;;;;;4965348;28;20050;-58
2023/12/31 05:26:28;;;;;;;1.02;0.90;;;22.70;36.40;;;;;;4962179;28;20047;-59
2023/12/31 05:28:56;;;;;;;1.05;0.82;;;22.70;36.40;;;;;;4962572;28;20051;-58
2023/12/31 05:31:48;;;;;;;0.70;0.70;;;22.70;36.30;;;;;;4974279;28;20403;-58
2023/12/31 05:34:15;;;;;;;1.30;0.70;;;22.60;36.30;;;;;;4963919;28;20055;-58
2023/12/31 05:36:42;;;;;;;1.40;1.00;;;22.60;36.30;;;;;;4967444;28;20396;-58
2023/12/31 05:39:09;;;;;;;0.80;0.80;;;22.60;36.30;;;;;;4967475;28;20253;-59
2023/12/31 05:41:36;;;;;;;1.27;0.85;;;22.60;36.30;;;;;;4964136;28;20047;-57
2023/12/31 05:44:04;;;;;;;0.93;0.80;;;22.60;36.30;;;;;;4964095;28;20054;-57
2023/12/31 05:46:31;;;;;;;1.35;0.95;;;22.60;36.30;;;;;;4964936;28;20054;-58
2023/12/31 05:48:59;;;;;;;2.60;0.98;;;22.60;36.40;;;;;;4963252;28;20054;-58
2023/12/31 05:51:27;;;;;;;1.70;0.85;;;22.50;36.40;;;;;;4967028;28;20050;-57
2023/12/31 05:53:54;;;;;;;2.78;0.75;;;22.50;36.50;;;;;;4964413;28;20059;-56
2023/12/31 05:56:21;;;;;;;1.83;0.75;;;22.50;36.50;;;;;;4969512;28;20054;-57
2023/12/31 05:58:48;;;;;;;1.17;0.90;;;22.50;36.50;;;;;;4962503;28;20420;-56
2023/12/31 06:01:16;;;;;;;1.27;0.70;;;22.50;36.50;;;;;;4966407;28;20492;-54
2023/12/31 06:03:43;;;;;;;2.35;0.88;;;22.50;36.40;;;;;;4966985;28;20455;-53
2023/12/31 06:06:12;;;;;;;1.52;1.05;;;22.40;36.40;;;;;;4961425;28;20065;-56
2023/12/31 06:08:39;;;;;;;1.35;0.75;;;22.40;36.40;;;;;;4964069;28;20053;-56
2023/12/31 06:11:07;;;;;;;3.95;0.85;;;22.40;36.40;;;;;;4964242;28;20055;-53
2023/12/31 06:31:14;;;;;;;1.45;0.65;;;22.50;36.70;;;;;;4974766;28;20046;-56
2023/12/31 12:29:05;;;;;;;1.98;0.30;;;22.70;36.60;;;;;;4931494;29;20043;-62
2023/12/31 12:31:36;;;;;;;1.58;0.60;;;22.80;36.60;;;;;;4934820;29;20071;-62
2023/12/31 12:34:04;;;;;;;1.95;0.50;;;22.90;36.60;;;;;;4929689;29;20047;-62
2023/12/31 12:36:32;;;;;;;0.35;0.30;;;22.90;36.50;;;;;;4933614;29;20067;-61
2023/12/31 12:39:02;;;;;;;2.20;0.30;;;22.90;36.50;;;;;;4933205;29;20052;-62
2023/12/31 12:41:31;;;;;;;1.02;0.52;;;23.00;36.40;;;;;;4933412;29;20134;-61
2023/12/31 12:47:22;;;;;;;1.52;0.47;;;23.00;36.40;;;;;;4935529;28;20047;-61
2023/12/31 12:49:50;;;;;;;0.77;0.50;;;23.00;36.20;;;;;;4933084;29;20063;-62
2023/12/31 12:52:17;;;;;;;0.30;0.20;;;23.00;36.10;;;;;;4931998;29;20058;-62
2023/12/31 12:54:44;;;;;;;0.95;0.50;;;23.00;36.10;;;;;;4932876;29;20051;-62
2023/12/31 12:57:11;;;;;;;0.60;0.30;;;23.00;36.00;;;;;;4932863;29;20067;-61
2023/12/31 12:59:38;;;;;;;1.02;0.70;;;23.00;35.80;;;;;;4933021;29;20060;-61
2023/12/31 13:02:06;;;;;;;1.40;0.60;;;23.00;35.80;;;;;;4932598;29;20055;-61
2023/12/31 13:04:34;;;;;;;0.70;0.68;;;23.00;35.80;;;;;;4932009;29;20062;-60
2023/12/31 13:07:01;;;;;;;1.25;0.80;;;23.00;35.70;;;;;;4932111;29;20056;-62
2023/12/31 13:09:28;;;;;;;1.08;0.70;;;23.00;35.70;;;;;;4932266;29;20174;-62
2023/12/31 13:11:56;;;;;;;1.00;0.77;;;22.90;35.60;;;;;;4932013;29;20075;-62
2023/12/31 13:14:23;;;;;;;1.55;0.85;;;22.90;35.50;;;;;;4930995;29;20047;-62
2023/12/31 13:16:50;;;;;;;1.77;0.75;;;22.90;35.50;;;;;;4932857;29;20063;-58
2023/12/31 13:19:19;;;;;;;0.75;0.70;;;22.90;35.50;;;;;;4928498;29;20052;-61
2023/12/31 13:21:48;;;;;;;2.55;0.85;;;22.90;35.60;;;;;;4933398;29;20055;-63
2023/12/31 13:24:16;;;;;;;27.85;1.40;;;22.80;35.60;;;;;;4931666;29;20404;-60
2023/12/31 13:26:43;;;;;;;12.75;1.10;;;22.80;35.80;;;;;;4928781;29;20055;-61
2023/12/31 13:29:10;;;;;;;2.75;0.82;;;22.80;35.90;;;;;;4931800;29;20055;-60
2023/12/31 13:31:37;;;;;;;26.30;2.03;;;22.80;35.90;;;;;;4937357;29;20060;-61
2023/12/31 13:34:06;;;;;;;17.80;1.40;;;22.80;36.00;;;;;;4930195;29;20416;-61
2023/12/31 13:36:33;;;;;;;5.63;1.10;;;22.80;36.10;;;;;;4934881;29;20059;-62
2023/12/31 13:39:02;;;;;;;10.52;1.05;;;22.80;36.10;;;;;;4932557;29;20051;-62
2023/12/31 13:41:29;;;;;;;1.92;0.70;;;22.70;36.00;;;;;;4930395;29;20055;-62
2023/12/31 13:43:57;;;;;;;10.57;0.90;;;22.70;36.10;;;;;;4932695;29;20054;-62
2023/12/31 13:46:24;;;;;;;5.65;1.25;;;22.70;36.10;;;;;;4926905;29;20060;-62
2023/12/31 13:48:51;;;;;;;8.02;1.15;;;22.70;36.10;;;;;;4927413;29;20062;-62
2023/12/31 13:51:19;;;;;;;5.50;1.27;;;22.70;36.00;;;;;;4928848;29;20052;-62
2023/12/31 13:53:47;;;;;;;6.03;1.10;;;22.60;36.00;;;;;;4928099;29;20044;-64
2023/12/31 13:56:15;;;;;;;3.75;0.80;;;22.60;35.90;;;;;;4929348;29;20062;-63
2023/12/31 13:58:42;;;;;;;4.28;1.50;;;22.60;36.00;;;;;;4929217;29;20480;-62
2023/12/31 14:01:10;;;;;;;15.25;1.33;;;22.60;35.90;;;;;;4929226;29;20436;-61
2023/12/31 14:03:37;;;;;;;10.10;1.23;;;22.60;36.00;;;;;;4926759;29;20048;-62
2023/12/31 14:06:05;;;;;;;1.77;0.82;;;22.50;36.10;;;;;;4929405;29;20074;-63
2023/12/31 14:08:32;;;;;;;3.83;0.98;;;22.60;36.20;;;;;;4933877;29;20488;-64
2023/12/31 14:10:59;;;;;;;2.20;0.80;;;22.60;36.30;;;;;;4930525;29;20248;-61
2023/12/31 14:13:28;;;;;;;2.55;0.90;;;22.60;36.30;;;;;;4925460;29;20489;-60
2023/12/31 14:15:55;;;;;;;1.65;1.00;;;22.60;36.50;;;;;;4925943;29;20052;-61
2023/12/31 14:18:22;;;;;;;2.60;1.02;;;22.70;36.60;;;;;;4929024;29;20400;-61
2023/12/31 14:20:50;;;;;;;2.47;0.90;;;22.80;36.60;;;;;;4929053;29;20060;-60
2023/12/31 14:23:17;;;;;;;2.45;0.90;;;22.80;36.60;;;;;;4929728;29;20062;-61
2023/12/31 14:25:45;;;;;;;4.22;1.10;;;22.80;36.50;;;;;;4928644;29;20051;-61
2023/12/31 14:28:12;;;;;;;3.72;1.00;;;22.90;36.40;;;;;;4926013;29;20060;-61
2023/12/31 14:30:42;;;;;;;3.47;1.13;;;22.90;36.40;;;;;;4927081;29;20432;-60
2023/12/31 14:33:10;;;;;;;2.75;0.95;;;22.90;36.30;;;;;;4926707;29;20062;-59
2023/12/31 14:35:38;;;;;;;5.03;1.23;;;22.90;35.90;;;;;;4922998;29;20055;-65
2023/12/31 14:38:05;;;;;;;2.85;1.08;;;23.00;35.90;;;;;;4926912;29;20051;-63
2023/12/31 14:40:32;;;;;;;4.43;1.25;;;23.00;35.80;;;;;;4925032;29;20059;-63
2023/12/31 14:43:00;;;;;;;2.40;0.98;;;23.00;35.90;;;;;;4925287;29;20063;-61
2023/12/31 14:45:27;;;;;;;5.05;1.10;;;23.00;36.00;;;;;;4925580;29;20511;-59
2023/12/31 14:47:56;;;;;;;9.30;1.08;;;23.00;36.00;;;;;;4926758;29;20055;-59
2023/12/31 14:50:24;;;;;;;4.18;1.30;;;23.00;36.00;;;;;;4925817;29;20063;-62
2023/12/31 14:52:52;;;;;;;2.75;1.00;;;23.00;36.00;;;;;;4927728;29;20071;-61
2023/12/31 14:55:20;;;;;;;3.30;1.10;;;23.00;36.00;;;;;;4927377;29;20056;-60
2023/12/31 14:57:47;;;;;;;2.95;0.80;;;23.00;36.00;;;;;;4926409;29;20052;-59
2023/12/31 15:00:15;;;;;;;1.95;0.90;;;23.00;35.90;;;;;;4925534;29;20055;-60
2023/12/31 15:02:42;;;;;;;3.58;1.35;;;23.00;35.90;;;;;;4924739;29;20060;-60
2023/12/31 15:05:11;;;;;;;3.72;1.25;;;23.00;35.90;;;;;;4920755;29;20059;-60
2023/12/31 15:07:38;;;;;;;2.63;0.93;;;22.90;35.90;;;;;;4927530;29;20412;-59
2023/12/31 15:10:08;;;;;;;4.82;1.33;;;22.90;35.90;;;;;;4927022;29;20523;-58
2023/12/31 15:12:35;;;;;;;2.80;0.93;;;22.90;35.90;;;;;;4929222;29;20071;-60
2023/12/31 15:15:02;;;;;;;3.67;1.05;;;22.90;35.90;;;;;;4927865;29;20043;-60
2023/12/31 15:17:30;;;;;;;3.90;1.10;;;22.90;35.90;;;;;;4926561;29;20064;-60
2023/12/31 15:19:57;;;;;;;2.47;0.88;;;22.80;35.90;;;;;;4928388;29;20051;-59
2023/12/31 15:22:26;;;;;;;4.57;1.42;;;22.80;35.90;;;;;;4924821;29;20051;-59
2023/12/31 15:24:53;;;;;;;5.05;1.35;;;22.80;35.90;;;;;;4926626;29;20480;-60
2023/12/31 15:27:20;;;;;;;3.92;1.15;;;22.80;35.90;;;;;;4928227;29;20060;-60
2023/12/31 15:29:48;;;;;;;3.55;1.10;;;22.70;35.90;;;;;;4929012;29;20502;-61
2023/12/31 15:32:15;;;;;;;2.58;1.10;;;22.80;36.00;;;;;;4926765;29;20067;-62
2023/12/31 15:34:43;;;;;;;2.78;1.05;;;22.70;36.00;;;;;;4927823;29;20051;-59
2023/12/31 15:37:10;;;;;;;2.35;0.80;;;22.70;36.00;;;;;;4927335;29;20063;-60
2023/12/31 15:39:40;;;;;;;2.45;0.90;;;22.70;36.10;;;;;;4925090;29;20055;-61
2023/12/31 15:42:09;;;;;;;17.77;1.30;;;22.70;36.10;;;;;;4923591;29;20071;-61
2023/12/31 15:44:36;;;;;;;5.00;1.05;;;22.60;36.10;;;;;;4922408;29;20047;-60
2023/12/31 15:47:04;;;;;;;4.80;1.45;;;22.60;36.20;;;;;;4925535;29;20051;-60
2023/12/31 15:49:32;;;;;;;5.78;1.50;;;22.60;35.70;;;;;;4923057;29;20848;-61
2023/12/31 15:51:59;;;;;;;6.93;1.40;;;22.60;35.60;;;;;;4925028;29;20048;-64
2023/12/31 15:54:27;;;;;;;9.82;1.55;;;22.50;35.40;;;;;;4924180;29;20047;-63
2023/12/31 15:56:55;;;;;;;4.57;1.48;;;22.50;35.40;;;;;;4927025;29;20070;-64
2023/12/31 15:59:22;;;;;;;4.05;1.50;;;22.50;35.50;;;;;;4926042;29;20433;-62
2023/12/31 16:01:50;;;;;;;3.42;1.15;;;22.50;35.70;;;;;;4925516;29;20052;-64
2023/12/31 16:04:17;;;;;;;4.05;1.33;;;22.50;35.80;;;;;;4923475;29;20056;-63
2023/12/31 16:06:44;;;;;;;5.93;1.00;;;22.50;35.90;;;;;;4923870;29;20067;-63
2023/12/31 16:09:11;;;;;;;4.30;1.30;;;22.50;36.00;;;;;;4924959;29;20059;-62
2023/12/31 16:11:39;;;;;;;4.50;1.20;;;22.50;36.10;;;;;;4928142;29;20532;-62
2023/12/31 16:14:07;;;;;;;6.43;1.42;;;22.50;36.20;;;;;;4926982;29;20520;-62
2023/12/31 16:16:35;;;;;;;2.92;1.20;;;22.60;36.30;;;;;;4925043;29;20063;-61
2023/12/31 16:19:03;;;;;;;4.18;1.13;;;22.60;36.30;;;;;;4926798;29;20059;-63
2023/12/31 16:21:31;;;;;;;4.47;1.35;;;22.70;36.30;;;;;;4927268;29;20428;-62
2023/12/31 16:23:58;;;;;;;7.38;1.30;;;22.70;36.20;;;;;;4925175;29;20437;-63
2023/12/31 16:26:25;;;;;;;3.38;1.15;;;22.70;36.20;;;;;;4930463;29;20497;-63
2023/12/31 16:28:52;;;;;;;3.30;1.27;;;22.80;36.20;;;;;;4934697;29;20063;-61
2023/12/31 16:31:21;;;;;;;3.60;1.38;;;22.80;36.20;;;;;;4934045;29;20056;-61
2023/12/31 16:33:48;;;;;;;4.22;1.27;;;22.90;36.20;;;;;;4931598;29;20386;-63
2023/12/31 16:36:15;;;;;;;4.22;1.38;;;22.90;36.20;;;;;;4932638;29;20538;-62
2023/12/31 16:38:43;;;;;;;6.13;1.20;;;23.00;36.20;;;;;;4935731;29;20484;-59
2023/12/31 16:41:10;;;;;;;5.45;1.50;;;22.90;36.10;;;;;;4942817;29;20055;-66
2023/12/31 16:44:02;;;;;;;2.85;1.10;;;23.00;36.20;;;;;;4931321;29;20060;-62
2023/12/31 16:46:30;;;;;;;3.38;1.05;;;23.00;36.20;;;;;;4929304;29;20059;-62
2023/12/31 16:48:57;;;;;;;2.30;1.10;;;23.00;36.10;;;;;;4930900;29;20063;-62
2023/12/31 16:51:25;;;;;;;4.13;1.15;;;23.00;36.20;;;;;;4930366;29;20055;-61
2023/12/31 16:53:53;;;;;;;4.15;1.45;;;23.00;36.10;;;;;;4929540;29;20269;-63
2023/12/31 16:56:20;;;;;;;6.32;1.48;;;23.00;36.10;;;;;;4931401;29;20047;-62
2023/12/31 16:58:48;;;;;;;3.40;1.20;;;23.00;36.00;;;;;;4929335;29;20055;-63
2023/12/31 17:01:18;;;;;;;5.05;1.70;;;23.00;36.00;;;;;;4931764;29;20067;-63
2023/12/31 17:03:47;;;;;;;3.97;1.50;;;23.00;36.00;;;;;;4931843;29;20059;-59
2023/12/31 17:06:14;;;;;;;4.90;1.30;;;23.00;36.00;;;;;;4932450;29;20052;-64
2023/12/31 17:08:43;;;;;;;2.22;0.93;;;22.90;35.90;;;;;;4934591;29;20056;-66
2023/12/31 17:11:11;;;;;;;3.75;1.63;;;22.90;35.90;;;;;;4935439;29;20062;-62
2023/12/31 17:13:39;;;;;;;10.48;1.58;;;22.90;36.00;;;;;;4932080;29;20062;-63
2023/12/31 17:16:07;;;;;;;3.03;1.20;;;22.90;36.00;;;;;;4928111;29;20051;-62
2023/12/31 17:18:35;;;;;;;5.53;1.25;;;22.90;36.00;;;;;;4929906;29;20059;-66
2023/12/31 17:21:04;;;;;;;6.13;1.70;;;22.90;36.10;;;;;;4928368;29;20481;-63
2023/12/31 17:23:31;;;;;;;5.32;1.70;;;22.90;36.10;;;;;;4928578;29;20407;-63
2023/12/31 17:25:58;;;;;;;2.72;1.05;;;22.90;36.10;;;;;;4929227;29;20489;-63
2023/12/31 17:28:26;;;;;;;5.00;1.38;;;22.90;36.10;;;;;;4926371;29;20555;-62
2023/12/31 17:30:55;;;;;;;8.05;1.65;;;22.80;36.00;;;;;;4927157;29;20066;-62
2023/12/31 17:33:22;;;;;;;4.85;1.55;;;22.80;36.00;;;;;;4926720;29;20048;-61
2023/12/31 17:35:50;;;;;;;5.78;1.80;;;22.80;36.10;;;;;;4925984;29;20047;-60
2023/12/31 17:38:19;;;;;;;5.35;1.52;;;22.70;36.10;;;;;;4928162;29;20052;-62
2023/12/31 17:40:48;;;;;;;4.05;1.50;;;22.80;36.10;;;;;;4925821;29;20066;-62
2023/12/31 17:43:16;;;;;;;5.38;1.40;;;22.70;36.10;;;;;;4925231;29;20060;-62
2023/12/31 17:45:43;;;;;;;4.75;1.50;;;22.70;36.10;;;;;;4922941;29;20611;-62
2023/12/31 17:48:10;;;;;;;5.75;1.42;;;22.70;36.10;;;;;;4924254;29;20055;-61
2023/12/31 17:50:38;;;;;;;3.80;1.25;;;22.70;36.10;;;;;;4925831;29;20062;-62
2023/12/31 17:53:05;;;;;;;4.22;1.27;;;22.70;36.20;;;;;;4926080;29;20047;-59
2023/12/31 17:55:34;;;;;;;18.77;1.63;;;22.60;36.10;;;;;;4923472;29;20497;-60
2023/12/31 17:58:01;;;;;;;5.63;1.50;;;22.60;36.20;;;;;;4926240;29;20278;-62
2023/12/31 18:00:28;;;;;;;4.65;1.50;;;22.60;36.20;;;;;;4924220;29;20052;-64
2023/12/31 18:02:55;;;;;;;4.68;1.20;;;22.60;36.20;;;;;;4928582;29;20051;-59
2023/12/31 18:05:23;;;;;;;6.55;1.85;;;22.60;36.30;;;;;;4925739;29;20048;-62
2023/12/31 18:07:50;;;;;;;7.30;1.67;;;22.60;36.30;;;;;;4927167;29;20051;-63
2023/12/31 18:10:18;;;;;;;2.75;1.10;;;22.60;36.40;;;;;;4926685;29;20425;-61
2023/12/31 18:12:47;;;;;;;2.83;1.05;;;22.60;36.40;;;;;;4928613;29;20568;-64
2023/12/31 18:15:14;;;;;;;5.43;1.10;;;22.60;36.50;;;;;;4918975;29;20071;-63
2023/12/31 18:17:41;;;;;;;4.95;1.40;;;22.70;36.60;;;;;;4925533;29;20062;-63
2023/12/31 18:20:10;;;;;;;4.60;1.27;;;22.80;36.60;;;;;;4922954;29;20052;-63
2023/12/31 18:22:38;;;;;;;3.15;1.10;;;22.80;36.50;;;;;;4923661;29;20501;-62
2023/12/31 18:25:06;;;;;;;3.42;1.17;;;22.90;36.50;;;;;;4925172;29;20059;-60
2023/12/31 18:27:33;;;;;;;4.22;1.33;;;22.90;36.40;;;;;;4925472;29;20060;-63
2023/12/31 18:30:02;;;;;;;3.95;1.40;;;22.90;36.40;;;;;;4922501;29;20066;-62
2023/12/31 18:32:29;;;;;;;4.38;1.50;;;23.00;36.40;;;;;;4927859;29;20577;-62
2023/12/31 18:34:57;;;;;;;3.05;1.55;;;23.00;36.30;;;;;;4923659;29;20058;-63
2023/12/31 18:37:24;;;;;;;6.45;1.35;;;23.00;36.30;;;;;;4923347;29;21527;-61
2023/12/31 18:39:54;;;;;;;2.35;1.10;;;23.00;36.20;;;;;;4924886;29;20404;-62
2023/12/31 18:42:21;;;;;;;2.95;1.25;;;23.00;36.20;;;;;;4924555;29;20066;-63
2023/12/31 18:44:48;;;;;;;2.05;1.00;;;23.00;36.20;;;;;;4927266;29;20059;-63
2023/12/31 18:47:17;;;;;;;3.42;1.10;;;23.00;36.20;;;;;;4925105;29;20547;-63
2023/12/31 18:49:45;;;;;;;3.05;1.10;;;23.00;36.10;;;;;;4922195;29;20521;-63
2023/12/31 18:52:12;;;;;;;3.65;1.42;;;23.00;36.10;;;;;;4925698;29;21914;-63
2023/12/31 18:54:42;;;;;;;4.22;1.42;;;23.00;36.10;;;;;;4922135;29;20145;-63
2023/12/31 18:57:09;;;;;;;3.88;1.38;;;23.00;36.10;;;;;;4924515;29;20618;-63
2023/12/31 18:59:36;;;;;;;4.25;1.45;;;23.00;36.10;;;;;;4925399;29;20317;-63
2023/12/31 19:02:04;;;;;;;3.50;1.17;;;23.00;36.10;;;;;;4924506;29;20066;-61
2023/12/31 19:04:32;;;;;;;3.97;1.30;;;23.00;36.10;;;;;;4923962;29;20066;-62
2023/12/31 19:07:00;;;;;;;3.38;1.65;;;22.90;36.10;;;;;;4925429;29;20055;-62
2023/12/31 19:09:27;;;;;;;3.10;1.25;;;23.00;36.10;;;;;;4924627;29;20250;-61
2023/12/31 19:11:55;;;;;;;2.72;1.30;;;23.00;36.10;;;;;;4923524;29;20493;-63
2023/12/31 19:14:22;;;;;;;2.17;1.20;;;22.90;36.10;;;;;;4924925;29;20056;-61
2023/12/31 19:16:50;;;;;;;4.43;1.38;;;22.90;36.10;;;;;;4921974;29;20051;-62
2023/12/31 19:19:17;;;;;;;2.65;1.40;;;22.90;36.40;;;;;;4923168;29;20048;-62
2023/12/31 19:21:46;;;;;;;3.90;1.05;;;22.90;36.20;;;;;;4925065;29;20058;-62
2023/12/31 19:24:13;;;;;;;3.08;1.38;;;22.80;36.10;;;;;;4921855;29;20056;-60
2023/12/31 19:26:40;;;;;;;4.43;1.40;;;22.80;36.10;;;;;;4922660;29;20071;-59
2023/12/31 19:29:08;;;;;;;5.07;1.20;;;22.80;36.10;;;;;;4925415;29;20075;-60
2023/12/31 19:31:36;;;;;;;2.72;1.25;;;22.80;36.20;;;;;;4924994;29;20064;-59
2023/12/31 19:34:03;;;;;;;3.00;1.35;;;22.80;36.20;;;;;;4924951;29;20063;-60
2023/12/31 19:36:31;;;;;;;2.88;1.15;;;22.80;36.20;;;;;;4932712;29;20054;-58
2023/12/31 19:38:59;;;;;;;2.53;1.00;;;22.80;36.20;;;;;;4929882;29;20059;-59
2023/12/31 19:41:27;;;;;;;3.03;1.15;;;22.70;36.20;;;;;;4926947;29;20481;-58
2023/12/31 19:43:54;;;;;;;2.83;1.10;;;22.70;36.20;;;;;;4925126;29;20697;-61
2023/12/31 19:46:21;;;;;;;3.88;1.33;;;22.70;36.30;;;;;;4927112;29;20416;-60
2023/12/31 19:48:48;;;;;;;2.15;1.17;;;22.70;36.20;;;;;;4924638;29;20067;-60
2023/12/31 19:51:16;;;;;;;3.85;1.40;;;22.60;36.20;;;;;;4932137;29;20066;-62
2023/12/31 19:53:43;;;;;;;2.90;1.27;;;22.60;36.20;;;;;;4928663;29;20055;-60
2023/12/31 19:56:12;;;;;;;4.32;1.20;;;22.60;36.20;;;;;;4923241;29;20051;-61
2023/12/31 19:58:39;;;;;;;2.22;0.90;;;22.60;36.30;;;;;;4929569;29;20060;-60
2023/12/31 20:01:06;;;;;;;3.75;1.27;;;22.60;36.40;;;;;;4926621;29;20056;-64
2023/12/31 20:03:34;;;;;;;1.77;1.05;;;22.60;36.40;;;;;;4930857;29;20055;-60
2023/12/31 20:06:01;;;;;;;3.40;1.00;;;22.60;36.50;;;;;;4932395;29;20051;-60